createdAt,value
2023-03-26T00:00:01.865Z,78.783
2023-03-26T00:01:02.101Z,78.422
2023-03-26T00:02:02.494Z,78.730
2023-03-26T00:03:01.985Z,78.457
2023-03-26T00:04:02.268Z,78.430
2023-03-26T00:05:02.484Z,78.251
2023-03-26T00:06:01.962Z,77.621
2023-03-26T00:07:02.113Z,78.133
2023-03-26T00:08:02.253Z,78.150
2023-03-26T00:09:02.413Z,78.176
2023-03-26T00:10:02.561Z,78.062
2023-03-26T00:11:02.731Z,77.165
2023-03-26T00:14:02.392Z,77.585
2023-03-26T00:15:02.591Z,77.635
2023-03-26T00:16:01.765Z,77.461
2023-03-26T00:17:02.155Z,77.614
2023-03-26T00:18:02.500Z,77.694
2023-03-26T00:19:01.713Z,77.434
2023-03-26T00:20:02.110Z,77.600
2023-03-26T00:21:02.324Z,77.610
2023-03-26T00:22:02.489Z,77.671
2023-03-26T00:23:02.031Z,77.711
2023-03-26T00:24:02.212Z,77.183
2023-03-26T00:25:02.429Z,77.679
2023-03-26T00:26:01.637Z,77.721
2023-03-26T00:27:01.728Z,77.871
2023-03-26T00:28:01.904Z,78.030
2023-03-26T00:29:02.088Z,77.789
2023-03-26T00:30:02.251Z,77.837
2023-03-26T00:31:02.517Z,77.917
2023-03-26T00:32:01.847Z,78.085
2023-03-26T00:33:02.117Z,78.428
2023-03-26T00:34:02.342Z,78.396
2023-03-26T00:35:02.496Z,78.180
2023-03-26T00:36:04.755Z,78.510
2023-03-26T00:38:02.286Z,78.447
2023-03-26T00:39:02.473Z,78.258
2023-03-26T00:40:02.730Z,78.628
2023-03-26T00:43:02.468Z,78.226
2023-03-26T00:44:01.774Z,78.394
2023-03-26T00:45:01.931Z,78.697
2023-03-26T00:46:02.334Z,78.689
2023-03-26T00:47:01.648Z,78.915
2023-03-26T00:48:04.094Z,78.804
2023-03-26T00:49:04.881Z,78.831
2023-03-26T00:52:02.467Z,78.890
2023-03-26T00:53:01.605Z,79.084
2023-03-26T00:54:01.762Z,78.665
2023-03-26T00:55:01.967Z,78.428
2023-03-26T00:56:02.210Z,78.487
2023-03-26T00:57:02.671Z,78.625
2023-03-26T00:59:05.548Z,78.792
2023-03-26T01:00:04.668Z,78.649
2023-03-26T01:01:05.854Z,78.648
2023-03-26T01:02:05.354Z,78.874
2023-03-26T01:05:05.770Z,78.794
2023-03-26T01:06:04.991Z,78.789
2023-03-26T01:07:05.187Z,78.974
2023-03-26T01:08:05.362Z,78.560
2023-03-26T01:09:05.626Z,78.501
2023-03-26T01:10:04.861Z,78.688
2023-03-26T01:11:05.075Z,78.665
2023-03-26T01:12:05.424Z,78.817
2023-03-26T01:13:04.637Z,78.693
2023-03-26T01:14:04.919Z,78.209
2023-03-26T01:15:05.194Z,78.379
2023-03-26T01:16:05.528Z,78.262
2023-03-26T01:17:05.298Z,78.180
2023-03-26T01:18:05.628Z,78.510
2023-03-26T01:19:04.840Z,78.195
2023-03-26T01:20:05.077Z,78.354
2023-03-26T01:21:05.399Z,78.503
2023-03-26T01:22:04.625Z,78.058
2023-03-26T01:23:04.829Z,78.316
2023-03-26T01:24:05.177Z,78.363
2023-03-26T01:25:05.457Z,78.586
2023-03-26T01:26:04.706Z,78.363
2023-03-26T01:27:05.043Z,78.726
2023-03-26T01:28:05.166Z,78.581
2023-03-26T01:29:05.420Z,78.813
2023-03-26T01:30:05.584Z,78.968
2023-03-26T01:31:04.713Z,79.330
2023-03-26T01:32:04.956Z,79.479
2023-03-26T01:33:05.663Z,79.443
2023-03-26T01:34:05.324Z,78.796
2023-03-26T01:35:05.579Z,79.243
2023-03-26T01:36:05.116Z,79.168
2023-03-26T01:37:05.361Z,79.159
2023-03-26T01:38:05.521Z,79.313
2023-03-26T01:39:04.704Z,78.773
2023-03-26T01:40:05.048Z,78.901
2023-03-26T01:41:05.406Z,78.813
2023-03-26T01:42:04.689Z,78.730
2023-03-26T01:43:04.915Z,78.949
2023-03-26T01:44:05.212Z,78.997
2023-03-26T01:45:05.472Z,79.178
2023-03-26T01:46:05.696Z,79.227
2023-03-26T01:47:04.951Z,79.315
2023-03-26T01:48:05.392Z,79.252
2023-03-26T01:49:04.704Z,79.004
2023-03-26T01:50:04.951Z,79.122
2023-03-26T01:51:05.279Z,79.220
2023-03-26T01:52:05.748Z,79.327
2023-03-26T01:53:05.039Z,79.328
2023-03-26T01:54:05.216Z,79.100
2023-03-26T01:55:05.621Z,79.222
2023-03-26T01:56:04.800Z,79.269
2023-03-26T01:57:05.170Z,79.372
2023-03-26T01:58:05.412Z,79.426
2023-03-26T01:59:04.676Z,79.052
2023-03-26T02:00:04.791Z,79.388
2023-03-26T02:01:05.068Z,79.418
2023-03-26T02:02:05.684Z,79.620
2023-03-26T02:03:05.847Z,79.687
2023-03-26T02:04:04.616Z,79.233
2023-03-26T02:05:04.846Z,79.586
2023-03-26T02:06:05.085Z,79.733
2023-03-26T02:07:05.279Z,79.632
2023-03-26T02:08:05.475Z,79.719
2023-03-26T02:09:04.697Z,79.658
2023-03-26T02:10:04.970Z,79.691
2023-03-26T02:11:05.206Z,79.685
2023-03-26T02:12:04.679Z,79.994
2023-03-26T02:13:04.995Z,80.053
2023-03-26T02:14:05.211Z,79.966
2023-03-26T02:15:05.412Z,80.036
2023-03-26T02:16:05.718Z,80.147
2023-03-26T02:17:05.036Z,80.343
2023-03-26T02:18:05.339Z,80.414
2023-03-26T02:19:05.676Z,80.572
2023-03-26T02:20:04.690Z,80.528
2023-03-26T02:21:04.992Z,80.408
2023-03-26T02:22:05.265Z,80.503
2023-03-26T02:23:05.524Z,80.591
2023-03-26T02:24:05.231Z,80.715
2023-03-26T02:25:05.564Z,80.271
2023-03-26T02:26:04.864Z,80.330
2023-03-26T02:27:05.085Z,80.702
2023-03-26T02:28:05.348Z,80.938
2023-03-26T02:29:05.517Z,80.883
2023-03-26T02:30:04.640Z,80.671
2023-03-26T02:31:04.848Z,80.992
2023-03-26T02:32:05.221Z,80.847
2023-03-26T02:33:05.598Z,81.016
2023-03-26T02:34:04.850Z,81.016
2023-03-26T02:35:05.070Z,80.963
2023-03-26T02:36:05.018Z,81.055
2023-03-26T02:37:05.589Z,81.228
2023-03-26T02:38:04.721Z,81.459
2023-03-26T02:39:04.957Z,81.745
2023-03-26T02:40:05.171Z,81.360
2023-03-26T02:41:05.424Z,81.266
2023-03-26T02:42:05.615Z,81.245
2023-03-26T02:43:04.996Z,81.354
2023-03-26T02:44:05.315Z,81.711
2023-03-26T02:45:05.577Z,82.043
2023-03-26T02:46:04.778Z,81.976
2023-03-26T02:47:05.393Z,81.673
2023-03-26T02:48:04.659Z,82.199
2023-03-26T02:49:04.964Z,82.174
2023-03-26T02:50:05.244Z,82.272
2023-03-26T02:51:05.520Z,82.205
2023-03-26T02:52:04.720Z,82.540
2023-03-26T02:53:04.836Z,82.891
2023-03-26T02:54:05.001Z,82.773
2023-03-26T02:55:05.300Z,82.918
2023-03-26T02:56:05.491Z,83.033
2023-03-26T02:57:04.739Z,82.800
2023-03-26T02:58:04.940Z,82.985
2023-03-26T02:59:05.262Z,83.157
2023-03-26T03:00:05.444Z,83.559
2023-03-26T03:01:04.942Z,83.332
2023-03-26T03:02:05.557Z,83.548
2023-03-26T03:03:05.130Z,83.691
2023-03-26T03:04:04.623Z,83.693
2023-03-26T03:05:04.769Z,83.569
2023-03-26T03:06:05.012Z,83.988
2023-03-26T03:07:05.321Z,83.904
2023-03-26T03:08:05.524Z,84.023
2023-03-26T03:09:04.779Z,84.316
2023-03-26T03:10:05.007Z,84.539
2023-03-26T03:11:05.196Z,84.633
2023-03-26T03:12:05.477Z,84.723
2023-03-26T03:13:04.932Z,84.568
2023-03-26T03:14:05.214Z,84.681
2023-03-26T03:15:05.403Z,84.675
2023-03-26T03:16:07.090Z,84.986
2023-03-26T03:17:08.560Z,85.125
2023-03-26T03:18:07.510Z,84.927
2023-03-26T03:19:05.592Z,84.677
2023-03-26T03:20:05.068Z,84.627
2023-03-26T03:21:05.309Z,84.629
2023-03-26T03:22:05.520Z,84.658
2023-03-26T03:23:04.646Z,84.604
2023-03-26T03:24:04.760Z,84.454
2023-03-26T03:25:05.005Z,84.393
2023-03-26T03:26:05.265Z,84.242
2023-03-26T03:27:05.377Z,84.236
2023-03-26T03:28:05.574Z,84.024
2023-03-26T03:29:04.711Z,83.517
2023-03-26T03:30:04.893Z,83.391
2023-03-26T03:31:05.221Z,83.462
2023-03-26T03:32:05.648Z,83.401
2023-03-26T03:33:05.147Z,83.544
2023-03-26T03:34:05.597Z,83.920
2023-03-26T03:35:04.857Z,83.920
2023-03-26T03:36:05.317Z,83.464
2023-03-26T03:37:05.708Z,83.839
2023-03-26T03:38:04.791Z,83.620
2023-03-26T03:39:04.958Z,83.555
2023-03-26T03:40:05.145Z,83.656
2023-03-26T03:41:05.336Z,84.007
2023-03-26T03:42:05.521Z,83.525
2023-03-26T03:43:04.715Z,84.019
2023-03-26T03:44:05.172Z,83.652
2023-03-26T03:45:05.355Z,83.757
2023-03-26T03:46:04.700Z,83.847
2023-03-26T03:47:05.053Z,83.612
2023-03-26T03:48:05.304Z,83.612
2023-03-26T03:49:05.569Z,83.750
2023-03-26T03:50:04.761Z,83.378
2023-03-26T03:51:04.908Z,83.771
2023-03-26T03:52:05.193Z,83.862
2023-03-26T03:53:05.311Z,83.776
2023-03-26T03:54:05.532Z,83.511
2023-03-26T03:55:04.643Z,83.548
2023-03-26T03:56:04.849Z,83.624
2023-03-26T03:57:05.564Z,83.294
2023-03-26T03:58:04.779Z,83.273
2023-03-26T03:59:04.988Z,83.065
2023-03-26T04:00:08.419Z,83.143
2023-03-26T04:02:04.772Z,83.521
2023-03-26T04:03:05.369Z,83.544
2023-03-26T04:05:05.482Z,83.408
2023-03-26T04:06:04.621Z,83.385
2023-03-26T04:07:04.984Z,83.479
2023-03-26T04:08:05.145Z,83.599
2023-03-26T04:09:05.351Z,83.601
2023-03-26T04:10:05.573Z,83.796
2023-03-26T04:11:04.724Z,84.238
2023-03-26T04:12:04.887Z,84.579
2023-03-26T04:13:05.305Z,84.349
2023-03-26T04:14:05.659Z,84.414
2023-03-26T04:15:04.787Z,84.276
2023-03-26T04:16:05.043Z,84.324
2023-03-26T04:17:05.403Z,84.232
2023-03-26T04:18:05.728Z,84.368
2023-03-26T04:19:04.987Z,84.530
2023-03-26T04:20:05.527Z,84.751
2023-03-26T04:21:04.913Z,84.721
2023-03-26T04:22:05.076Z,84.785
2023-03-26T04:23:05.233Z,84.900
2023-03-26T04:24:05.481Z,84.642
2023-03-26T04:25:04.681Z,84.810
2023-03-26T04:26:05.058Z,84.703
2023-03-26T04:27:05.301Z,84.736
2023-03-26T04:28:05.480Z,84.789
2023-03-26T04:29:04.701Z,84.707
2023-03-26T04:30:05.020Z,84.635
2023-03-26T04:31:05.422Z,85.114
2023-03-26T04:32:04.666Z,85.083
2023-03-26T04:33:04.981Z,85.285
2023-03-26T04:34:05.407Z,85.131
2023-03-26T04:35:05.712Z,84.782
2023-03-26T04:36:04.958Z,84.923
2023-03-26T04:37:05.176Z,84.824
2023-03-26T04:38:05.368Z,84.890
2023-03-26T04:39:05.564Z,84.669
2023-03-26T04:40:04.822Z,84.724
2023-03-26T04:41:06.144Z,84.846
2023-03-26T04:44:04.668Z,84.835
2023-03-26T04:45:04.912Z,85.003
2023-03-26T04:46:05.268Z,84.902
2023-03-26T04:47:05.623Z,84.982
2023-03-26T04:48:04.958Z,85.142
2023-03-26T04:49:05.060Z,85.258
2023-03-26T04:50:05.290Z,85.234
2023-03-26T04:51:05.497Z,85.224
2023-03-26T04:52:04.689Z,85.381
2023-03-26T04:53:04.918Z,85.491
2023-03-26T04:54:05.124Z,85.821
2023-03-26T04:55:05.282Z,85.701
2023-03-26T04:56:05.441Z,85.690
2023-03-26T04:57:05.788Z,85.873
2023-03-26T04:58:05.025Z,86.020
2023-03-26T04:59:05.368Z,86.130
2023-03-26T05:00:05.496Z,86.050
2023-03-26T05:01:10.069Z,86.086
2023-03-26T05:03:05.327Z,86.346
2023-03-26T05:04:04.808Z,86.496
2023-03-26T05:05:05.206Z,86.506
2023-03-26T05:06:05.441Z,86.590
2023-03-26T05:07:05.665Z,86.563
2023-03-26T05:08:04.772Z,86.630
2023-03-26T05:09:05.102Z,86.525
2023-03-26T05:10:05.348Z,86.597
2023-03-26T05:11:04.580Z,86.403
2023-03-26T05:12:04.765Z,86.559
2023-03-26T05:13:04.921Z,86.725
2023-03-26T05:14:05.112Z,86.689
2023-03-26T05:15:05.298Z,86.363
2023-03-26T05:16:05.549Z,86.330
2023-03-26T05:17:04.846Z,86.264
2023-03-26T05:18:05.105Z,86.180
2023-03-26T05:19:05.517Z,86.090
2023-03-26T05:20:04.636Z,86.123
2023-03-26T05:21:04.895Z,86.088
2023-03-26T05:22:05.130Z,86.201
2023-03-26T05:23:05.287Z,86.100
2023-03-26T05:24:05.494Z,85.960
2023-03-26T05:25:04.680Z,85.781
2023-03-26T05:26:04.886Z,85.791
2023-03-26T05:27:05.091Z,85.728
2023-03-26T05:28:05.316Z,85.707
2023-03-26T05:29:05.623Z,85.693
2023-03-26T05:30:04.750Z,85.577
2023-03-26T05:31:04.969Z,85.354
2023-03-26T05:32:05.148Z,85.167
2023-03-26T05:33:05.681Z,84.963
2023-03-26T05:35:04.936Z,85.167
2023-03-26T05:36:05.180Z,85.028
2023-03-26T05:37:05.405Z,84.841
2023-03-26T05:38:04.565Z,84.871
2023-03-26T05:39:04.699Z,85.037
2023-03-26T05:40:04.895Z,85.028
2023-03-26T05:41:05.200Z,84.921
2023-03-26T05:42:05.462Z,85.016
2023-03-26T05:43:04.660Z,84.990
2023-03-26T05:44:04.803Z,84.925
2023-03-26T05:45:05.020Z,84.953
2023-03-26T05:46:05.205Z,84.753
2023-03-26T05:47:05.483Z,84.810
2023-03-26T05:48:04.686Z,84.768
2023-03-26T05:49:04.925Z,84.896
2023-03-26T05:50:05.109Z,84.904
2023-03-26T05:51:05.309Z,84.900
2023-03-26T05:52:05.529Z,85.003
2023-03-26T05:53:04.604Z,84.858
2023-03-26T05:54:04.762Z,84.883
2023-03-26T05:55:04.957Z,84.736
2023-03-26T05:56:05.156Z,84.784
2023-03-26T05:57:05.409Z,84.778
2023-03-26T05:58:04.633Z,84.759
2023-03-26T05:59:04.869Z,84.711
2023-03-26T06:00:05.194Z,84.812
2023-03-26T06:01:05.400Z,84.517
2023-03-26T06:02:05.646Z,84.549
2023-03-26T06:03:05.192Z,84.620
2023-03-26T06:04:05.368Z,84.476
2023-03-26T06:06:05.296Z,84.387
2023-03-26T06:07:05.527Z,84.263
2023-03-26T06:08:04.863Z,84.126
2023-03-26T06:09:05.030Z,83.969
2023-03-26T06:10:05.281Z,83.908
2023-03-26T06:11:05.515Z,83.595
2023-03-26T06:12:04.715Z,83.622
2023-03-26T06:13:05.013Z,83.656
2023-03-26T06:14:05.133Z,83.521
2023-03-26T06:15:05.283Z,83.496
2023-03-26T06:16:05.751Z,83.187
2023-03-26T06:17:05.040Z,82.937
2023-03-26T06:18:05.350Z,83.075
2023-03-26T06:19:04.707Z,83.040
2023-03-26T06:20:04.892Z,82.781
2023-03-26T06:21:05.204Z,82.773
2023-03-26T06:22:05.350Z,82.851
2023-03-26T06:23:05.646Z,83.038
2023-03-26T06:24:04.848Z,83.178
2023-03-26T06:25:05.084Z,83.256
2023-03-26T06:26:05.356Z,83.311
2023-03-26T06:27:05.537Z,83.260
2023-03-26T06:28:04.725Z,83.309
2023-03-26T06:29:04.907Z,83.210
2023-03-26T06:30:05.120Z,83.250
2023-03-26T06:31:05.550Z,83.303
2023-03-26T06:32:18.829Z,83.002
2023-03-26T06:34:05.053Z,83.191
2023-03-26T06:35:05.308Z,82.920
2023-03-26T06:36:05.722Z,83.042
2023-03-26T06:37:04.979Z,82.895
2023-03-26T06:38:05.169Z,82.714
2023-03-26T06:39:09.224Z,82.548
2023-03-26T06:41:05.582Z,82.546
2023-03-26T06:42:04.736Z,82.277
2023-03-26T06:43:12.414Z,82.251
2023-03-26T06:45:04.723Z,81.720
2023-03-26T06:46:04.920Z,81.760
2023-03-26T06:47:05.220Z,81.522
2023-03-26T06:48:05.741Z,81.716
2023-03-26T06:49:04.938Z,81.421
2023-03-26T06:50:05.105Z,81.495
2023-03-26T06:51:05.252Z,81.367
2023-03-26T06:52:05.450Z,81.518
2023-03-26T06:53:04.569Z,81.140
2023-03-26T06:54:04.714Z,80.992
2023-03-26T06:55:05.057Z,80.788
2023-03-26T06:56:06.104Z,80.519
2023-03-26T06:57:05.438Z,81.024
2023-03-26T06:58:05.599Z,80.501
2023-03-26T06:59:04.733Z,80.660
2023-03-26T07:00:04.982Z,80.851
2023-03-26T07:01:05.303Z,80.641
2023-03-26T07:02:04.680Z,80.482
2023-03-26T07:03:05.143Z,80.568
2023-03-26T07:04:05.495Z,80.301
2023-03-26T07:05:04.855Z,80.601
2023-03-26T07:06:04.790Z,80.349
2023-03-26T07:07:04.996Z,80.446
2023-03-26T07:08:06.225Z,80.322
2023-03-26T07:09:05.528Z,80.587
2023-03-26T07:12:05.119Z,80.278
2023-03-26T07:13:05.295Z,80.227
2023-03-26T07:14:05.492Z,80.252
2023-03-26T07:15:04.756Z,80.185
2023-03-26T07:16:04.953Z,80.263
2023-03-26T07:17:05.281Z,80.118
2023-03-26T07:18:05.547Z,80.446
2023-03-26T07:19:04.853Z,80.481
2023-03-26T07:20:05.127Z,80.564
2023-03-26T07:21:05.521Z,80.204
2023-03-26T07:22:04.691Z,80.244
2023-03-26T07:23:04.866Z,80.114
2023-03-26T07:24:05.441Z,79.803
2023-03-26T07:25:05.976Z,80.362
2023-03-26T07:26:05.194Z,80.177
2023-03-26T07:27:05.325Z,80.488
2023-03-26T07:28:05.461Z,80.057
2023-03-26T07:29:10.111Z,80.257
2023-03-26T07:31:05.379Z,80.065
2023-03-26T07:32:04.745Z,79.771
2023-03-26T07:33:05.416Z,79.918
2023-03-26T07:34:04.691Z,79.878
2023-03-26T07:35:04.972Z,79.878
2023-03-26T07:36:05.459Z,79.784
2023-03-26T07:37:04.679Z,79.510
2023-03-26T07:38:04.831Z,79.641
2023-03-26T07:39:05.045Z,79.792
2023-03-26T07:40:05.218Z,79.597
2023-03-26T07:41:05.548Z,79.489
2023-03-26T07:42:04.696Z,79.321
2023-03-26T07:43:04.925Z,79.143
2023-03-26T07:44:05.180Z,79.035
2023-03-26T07:45:05.393Z,79.397
2023-03-26T07:46:04.666Z,79.389
2023-03-26T07:47:05.040Z,79.382
2023-03-26T07:48:05.340Z,79.094
2023-03-26T07:50:04.967Z,78.705
2023-03-26T07:51:05.333Z,79.060
2023-03-26T07:52:05.480Z,78.953
2023-03-26T07:53:04.734Z,79.182
2023-03-26T07:54:04.934Z,79.267
2023-03-26T07:55:05.344Z,79.306
2023-03-26T07:56:05.596Z,79.170
2023-03-26T07:57:06.046Z,79.218
2023-03-26T07:59:05.761Z,80.120
2023-03-26T08:00:05.036Z,80.065
2023-03-26T08:01:05.351Z,79.803
2023-03-26T08:02:05.519Z,80.198
2023-03-26T08:03:05.105Z,80.635
2023-03-26T08:04:23.510Z,80.551
2023-03-26T08:05:05.573Z,80.427
2023-03-26T08:06:04.712Z,81.108
2023-03-26T08:07:04.945Z,81.245
2023-03-26T08:08:05.140Z,81.175
2023-03-26T08:09:04.624Z,81.411
2023-03-26T08:10:04.857Z,81.816
2023-03-26T08:11:05.204Z,82.191
2023-03-26T08:12:05.364Z,82.434
2023-03-26T08:13:05.637Z,82.739
2023-03-26T08:14:04.788Z,82.396
2023-03-26T08:15:04.987Z,82.378
2023-03-26T08:16:05.372Z,83.052
2023-03-26T08:17:04.836Z,82.701
2023-03-26T08:18:05.212Z,82.748
2023-03-26T08:19:05.405Z,82.779
2023-03-26T08:20:05.618Z,82.872
2023-03-26T08:21:04.808Z,83.492
2023-03-26T08:22:04.955Z,82.968
2023-03-26T08:23:05.190Z,82.622
2023-03-26T08:26:05.465Z,82.750
2023-03-26T08:27:04.636Z,82.907
2023-03-26T08:28:04.693Z,83.408
2023-03-26T08:29:04.904Z,82.954
2023-03-26T08:30:05.133Z,82.823
2023-03-26T08:31:05.444Z,82.695
2023-03-26T08:32:04.793Z,82.762
2023-03-26T08:33:05.046Z,82.752
2023-03-26T08:34:05.333Z,82.989
2023-03-26T08:35:05.543Z,83.380
2023-03-26T08:36:04.847Z,84.366
2023-03-26T08:37:05.420Z,83.939
2023-03-26T08:38:05.606Z,83.582
2023-03-26T08:39:04.816Z,83.790
2023-03-26T08:40:04.968Z,84.143
2023-03-26T08:41:05.227Z,83.935
2023-03-26T08:42:05.409Z,83.864
2023-03-26T08:43:05.531Z,83.712
2023-03-26T08:44:04.643Z,83.708
2023-03-26T08:45:04.969Z,83.971
2023-03-26T08:46:05.172Z,84.217
2023-03-26T08:47:05.516Z,83.672
2023-03-26T08:48:04.822Z,84.320
2023-03-26T08:49:05.000Z,84.042
2023-03-26T08:50:05.614Z,84.339
2023-03-26T08:51:04.773Z,84.276
2023-03-26T08:52:05.017Z,84.354
2023-03-26T08:53:05.187Z,84.515
2023-03-26T08:54:05.393Z,84.471
2023-03-26T08:55:05.584Z,84.600
2023-03-26T08:56:04.753Z,84.599
2023-03-26T08:57:04.934Z,84.757
2023-03-26T08:58:05.170Z,84.869
2023-03-26T08:59:05.363Z,84.669
2023-03-26T09:00:05.555Z,85.476
2023-03-26T09:01:04.880Z,84.818
2023-03-26T09:02:05.329Z,84.852
2023-03-26T09:03:05.665Z,85.430
2023-03-26T09:04:04.971Z,85.594
2023-03-26T09:05:05.184Z,85.680
2023-03-26T09:06:05.320Z,85.630
2023-03-26T09:07:05.258Z,85.733
2023-03-26T09:08:05.448Z,85.915
2023-03-26T09:09:04.607Z,86.105
2023-03-26T09:10:05.552Z,85.878
2023-03-26T09:11:04.722Z,86.096
2023-03-26T09:12:04.882Z,86.441
2023-03-26T09:13:04.761Z,85.953
2023-03-26T09:14:04.981Z,86.111
2023-03-26T09:15:05.262Z,86.277
2023-03-26T09:16:05.530Z,86.433
2023-03-26T09:17:04.797Z,86.180
2023-03-26T09:18:04.930Z,86.411
2023-03-26T09:19:05.369Z,86.435
2023-03-26T09:20:05.616Z,86.636
2023-03-26T09:21:04.814Z,86.882
2023-03-26T09:22:05.007Z,87.338
2023-03-26T09:23:05.183Z,86.561
2023-03-26T09:24:05.443Z,86.706
2023-03-26T09:25:05.684Z,87.021
2023-03-26T09:26:04.961Z,87.561
2023-03-26T09:27:05.123Z,87.154
2023-03-26T09:28:05.244Z,86.819
2023-03-26T09:29:05.388Z,87.023
2023-03-26T09:30:05.616Z,87.078
2023-03-26T09:31:04.880Z,87.450
2023-03-26T09:32:05.245Z,87.116
2023-03-26T09:33:05.662Z,87.225
2023-03-26T09:34:04.872Z,87.433
2023-03-26T09:35:05.098Z,87.269
2023-03-26T09:36:05.502Z,87.263
2023-03-26T09:37:05.009Z,87.338
2023-03-26T09:38:10.018Z,87.484
2023-03-26T09:40:05.405Z,87.523
2023-03-26T09:41:05.617Z,87.862
2023-03-26T09:42:04.774Z,87.992
2023-03-26T09:43:04.901Z,87.807
2023-03-26T09:44:05.021Z,87.894
2023-03-26T09:45:05.232Z,88.045
2023-03-26T09:46:05.535Z,88.469
2023-03-26T09:47:04.802Z,87.984
2023-03-26T09:48:05.247Z,87.645
2023-03-26T09:49:05.399Z,87.919
2023-03-26T09:50:05.612Z,88.018
2023-03-26T09:51:04.792Z,88.051
2023-03-26T09:52:04.992Z,87.774
2023-03-26T09:53:05.230Z,87.713
2023-03-26T09:54:05.528Z,87.763
2023-03-26T09:55:04.692Z,88.028
2023-03-26T09:56:04.906Z,88.738
2023-03-26T09:57:05.216Z,87.929
2023-03-26T09:58:04.783Z,88.171
2023-03-26T09:59:05.059Z,88.491
2023-03-26T10:00:05.365Z,88.894
2023-03-26T10:01:05.933Z,88.650
2023-03-26T10:02:05.369Z,88.467
2023-03-26T10:03:06.652Z,88.524
2023-03-26T10:04:05.395Z,88.594
2023-03-26T10:07:05.184Z,88.739
2023-03-26T10:08:05.704Z,89.144
2023-03-26T10:09:04.841Z,89.071
2023-03-26T10:10:05.286Z,89.418
2023-03-26T10:11:05.480Z,89.180
2023-03-26T10:12:04.720Z,89.394
2023-03-26T10:13:14.364Z,89.521
2023-03-26T10:15:05.117Z,89.829
2023-03-26T10:16:04.959Z,89.399
2023-03-26T10:17:05.479Z,89.060
2023-03-26T10:18:04.763Z,89.420
2023-03-26T10:19:04.892Z,89.039
2023-03-26T10:20:05.347Z,88.312
2023-03-26T10:21:05.474Z,88.800
2023-03-26T10:22:04.730Z,88.545
2023-03-26T10:23:04.883Z,88.425
2023-03-26T10:24:11.499Z,88.604
2023-03-26T10:26:04.736Z,88.696
2023-03-26T10:27:12.440Z,88.976
2023-03-26T10:29:04.805Z,88.869
2023-03-26T10:30:05.110Z,89.319
2023-03-26T10:31:05.418Z,88.577
2023-03-26T10:32:04.776Z,88.852
2023-03-26T10:33:05.287Z,89.390
2023-03-26T10:34:05.217Z,89.668
2023-03-26T10:35:05.630Z,89.651
2023-03-26T10:36:04.968Z,89.811
2023-03-26T10:37:05.236Z,89.022
2023-03-26T10:38:05.392Z,88.804
2023-03-26T10:39:05.529Z,88.783
2023-03-26T10:41:08.479Z,89.542
2023-03-26T10:42:07.820Z,89.644
2023-03-26T10:43:08.022Z,89.382
2023-03-26T10:44:10.540Z,89.167
2023-03-26T10:45:08.931Z,89.743
2023-03-26T10:47:08.620Z,88.799
2023-03-26T10:49:08.323Z,88.945
2023-03-26T10:50:08.546Z,88.930
2023-03-26T10:51:07.826Z,88.970
2023-03-26T10:52:08.025Z,89.272
2023-03-26T10:53:08.300Z,89.321
2023-03-26T10:54:08.478Z,88.987
2023-03-26T10:55:07.633Z,89.012
2023-03-26T10:56:08.151Z,89.005
2023-03-26T10:57:08.507Z,88.926
2023-03-26T10:58:07.711Z,89.281
2023-03-26T10:59:07.955Z,88.720
2023-03-26T11:00:08.127Z,88.751
2023-03-26T11:01:08.018Z,88.745
2023-03-26T11:02:08.492Z,88.678
2023-03-26T11:03:08.273Z,88.598
2023-03-26T11:04:08.406Z,88.804
2023-03-26T11:05:08.662Z,88.818
2023-03-26T11:06:07.980Z,88.079
2023-03-26T11:07:10.212Z,87.589
2023-03-26T11:09:08.036Z,87.847
2023-03-26T11:10:08.304Z,87.139
2023-03-26T11:11:08.500Z,87.196
2023-03-26T11:12:25.409Z,86.538
2023-03-26T11:13:07.605Z,87.185
2023-03-26T11:14:07.752Z,87.318
2023-03-26T11:15:07.809Z,86.466
2023-03-26T11:16:08.122Z,86.653
2023-03-26T11:17:08.296Z,86.496
2023-03-26T11:19:12.942Z,86.468
2023-03-26T11:20:13.119Z,87.290
2023-03-26T11:21:21.369Z,87.038
2023-03-26T11:23:12.625Z,87.168
2023-03-26T11:24:17.735Z,87.156
2023-03-26T11:26:13.318Z,87.465
2023-03-26T11:27:19.114Z,87.324
2023-03-26T11:28:14.451Z,87.732
2023-03-26T11:29:32.121Z,88.133
2023-03-26T11:31:16.745Z,88.015
2023-03-26T11:32:16.077Z,88.574
2023-03-26T11:33:16.436Z,87.698
2023-03-26T11:34:15.888Z,88.085
2023-03-26T11:35:16.389Z,88.062
2023-03-26T11:36:15.713Z,88.331
2023-03-26T11:37:15.908Z,87.921
2023-03-26T11:38:16.042Z,88.493
2023-03-26T11:39:16.336Z,88.038
2023-03-26T11:40:16.535Z,87.702
2023-03-26T11:41:15.685Z,88.024
2023-03-26T11:42:15.740Z,87.725
2023-03-26T11:43:15.833Z,87.402
2023-03-26T11:44:16.121Z,87.585
2023-03-26T11:45:16.315Z,87.721
2023-03-26T11:46:16.574Z,88.301
2023-03-26T11:47:16.252Z,88.480
2023-03-26T11:48:16.636Z,87.805
2023-03-26T11:49:15.785Z,87.790
2023-03-26T11:50:16.009Z,88.053
2023-03-26T11:51:16.476Z,88.249
2023-03-26T11:52:15.609Z,87.894
2023-03-26T11:53:15.819Z,87.545
2023-03-26T11:54:16.193Z,87.421
2023-03-26T11:55:16.387Z,87.252
2023-03-26T11:56:16.667Z,86.250
2023-03-26T11:57:16.091Z,86.042
2023-03-26T11:58:16.602Z,86.395
2023-03-26T11:59:15.838Z,86.374
2023-03-26T12:00:16.534Z,86.634
2023-03-26T12:01:15.967Z,86.765
2023-03-26T12:02:16.347Z,86.546
2023-03-26T12:03:16.518Z,86.731
2023-03-26T12:04:15.819Z,86.933
2023-03-26T12:05:16.713Z,86.870
2023-03-26T12:06:15.916Z,87.006
2023-03-26T12:07:16.168Z,87.244
2023-03-26T12:08:16.835Z,87.362
2023-03-26T12:09:15.925Z,86.971
2023-03-26T12:10:21.161Z,87.563
2023-03-26T12:13:15.728Z,87.732
2023-03-26T12:14:15.903Z,86.954
2023-03-26T12:15:16.143Z,86.988
2023-03-26T12:16:16.548Z,86.666
2023-03-26T12:17:15.924Z,86.388
2023-03-26T12:18:16.115Z,86.744
2023-03-26T12:19:16.349Z,86.647
2023-03-26T12:20:16.596Z,85.720
2023-03-26T12:21:15.727Z,85.896
2023-03-26T12:22:15.871Z,85.533
2023-03-26T12:23:16.037Z,85.230
2023-03-26T12:24:16.300Z,84.995
2023-03-26T12:25:16.677Z,85.699
2023-03-26T12:26:15.777Z,85.464
2023-03-26T12:27:16.041Z,84.824
2023-03-26T12:28:16.268Z,85.197
2023-03-26T12:29:16.468Z,84.665
2023-03-26T12:30:15.664Z,84.326
2023-03-26T12:31:16.255Z,84.234
2023-03-26T12:32:16.655Z,84.358
2023-03-26T12:34:17.930Z,84.179
2023-03-26T12:35:18.094Z,83.967
2023-03-26T12:36:18.274Z,84.303
2023-03-26T12:37:18.396Z,82.035
2023-03-26T12:38:17.584Z,82.548
2023-03-26T12:40:08.253Z,81.938
2023-03-26T12:42:26.257Z,81.552
2023-03-26T12:44:45.607Z,79.719
2023-03-26T12:47:46.350Z,79.609
2023-03-26T12:48:28.535Z,77.635
2023-03-26T12:49:28.368Z,76.986
2023-03-26T12:50:33.833Z,76.643
2023-03-26T12:51:28.139Z,77.431
2023-03-26T12:52:28.320Z,73.988
2023-03-26T12:53:28.499Z,76.391
2023-03-26T12:54:27.853Z,74.447
2023-03-26T12:55:28.062Z,76.187
2023-03-26T12:56:28.491Z,76.771
2023-03-26T12:57:27.881Z,77.125
2023-03-26T12:58:28.206Z,76.059
2023-03-26T12:59:28.450Z,76.048
2023-03-26T13:00:27.685Z,73.982
2023-03-26T13:01:28.064Z,74.591
2023-03-26T13:02:28.843Z,74.694
2023-03-26T13:03:28.379Z,73.719
2023-03-26T13:04:29.717Z,73.284
2023-03-26T13:06:32.552Z,72.109
2023-03-26T13:08:35.024Z,70.940
2023-03-26T13:09:35.293Z,71.836
2023-03-26T13:10:34.990Z,69.931
2023-03-26T13:11:35.204Z,69.586
2023-03-26T13:12:35.370Z,68.266
2023-03-26T13:13:34.601Z,68.628
2023-03-26T13:14:35.069Z,67.829
2023-03-26T13:15:35.260Z,67.800
2023-03-26T13:16:35.349Z,71.455
2023-03-26T13:17:34.829Z,70.013
2023-03-26T13:18:35.104Z,69.401
2023-03-26T13:19:35.320Z,70.402